createdAt,value
2019-05-10T00:00:03.735Z,86.1
2019-05-10T00:05:03.718Z,86.7
2019-05-10T00:10:03.710Z,86
2019-05-10T00:15:03.731Z,82.8
2019-05-10T00:20:03.740Z,82
2019-05-10T00:25:05.467Z,80
2019-05-10T00:30:03.734Z,80.6
2019-05-10T00:35:03.727Z,79.6
2019-05-10T00:40:03.740Z,79.7
2019-05-10T00:45:03.880Z,78.7
2019-05-10T00:50:03.725Z,78.6
2019-05-10T00:55:19.496Z,79.2
2019-05-10T01:00:03.741Z,79
2019-05-10T01:05:03.755Z,79.9
2019-05-10T01:10:03.749Z,79.3
2019-05-10T01:15:03.759Z,78.9
2019-05-10T01:20:03.758Z,79.5
2019-05-10T01:25:03.754Z,79.8
2019-05-10T01:30:03.777Z,79.8
2019-05-10T01:35:03.762Z,79.9
2019-05-10T01:40:03.778Z,79.5
2019-05-10T01:45:03.780Z,79.1
2019-05-10T01:50:03.777Z,79.3
2019-05-10T01:55:03.771Z,80
2019-05-10T02:00:03.802Z,79
2019-05-10T02:05:03.800Z,76.9
2019-05-10T02:10:03.797Z,76
2019-05-10T02:15:03.787Z,76.2
2019-05-10T02:20:03.776Z,75.1
2019-05-10T02:25:03.805Z,75.7
2019-05-10T02:30:03.803Z,74.6
2019-05-10T02:35:03.828Z,74.4
2019-05-10T02:40:03.948Z,74.2
2019-05-10T02:45:03.864Z,74.4
2019-05-10T02:50:03.790Z,74.8
2019-05-10T02:55:03.810Z,74.2
2019-05-10T03:00:03.832Z,73.9
2019-05-10T03:05:03.855Z,73.4
2019-05-10T03:10:03.816Z,74.5
2019-05-10T03:15:03.849Z,74.9
2019-05-10T03:20:03.856Z,74.9
2019-05-10T03:25:03.823Z,74.8
2019-05-10T03:30:03.823Z,73.7
2019-05-10T03:35:03.873Z,74.3
2019-05-10T03:40:03.822Z,74.4
2019-05-10T03:45:03.823Z,73.7
2019-05-10T03:50:03.866Z,74.9
2019-05-10T03:55:03.845Z,74.9
2019-05-10T04:00:03.847Z,75
2019-05-10T04:05:03.851Z,75.3
2019-05-10T04:10:03.916Z,75.4
2019-05-10T04:15:03.853Z,75
2019-05-10T04:20:03.860Z,76
2019-05-10T04:25:03.846Z,74.7
2019-05-10T04:30:03.852Z,74.6
2019-05-10T04:35:03.888Z,74.3
2019-05-10T04:40:03.865Z,73.7
2019-05-10T04:45:03.900Z,73.9
2019-05-10T04:50:03.872Z,74.1
2019-05-10T04:55:03.864Z,73.1
2019-05-10T05:00:03.903Z,74.3
2019-05-10T05:05:03.943Z,72.9
2019-05-10T05:10:03.917Z,73.3
2019-05-10T05:15:03.867Z,73.5
2019-05-10T05:20:03.884Z,72.2
2019-05-10T05:25:04.083Z,72.3
2019-05-10T05:30:03.879Z,72.2
2019-05-10T05:35:03.884Z,72.3
2019-05-10T05:40:04.274Z,72.9
2019-05-10T05:45:07.088Z,71.5
2019-05-10T05:50:05.127Z,72.4
2019-05-10T05:55:08.325Z,72.1
2019-05-10T06:00:07.062Z,71.4
2019-05-10T06:05:05.068Z,71.2
2019-05-10T06:10:03.891Z,71.4
2019-05-10T06:15:03.923Z,70.4
2019-05-10T06:20:07.596Z,70.7
2019-05-10T06:25:03.973Z,70
2019-05-10T06:30:03.929Z,69.2
2019-05-10T06:35:03.971Z,69.3
2019-05-10T06:40:03.949Z,69.5
2019-05-10T06:45:16.180Z,69
2019-05-10T06:50:03.923Z,67.8
2019-05-10T06:55:04.360Z,68
2019-05-10T07:00:08.027Z,68.1
2019-05-10T07:05:03.982Z,66.7
2019-05-10T07:10:25.112Z,65.8
2019-05-10T07:15:05.842Z,65.8
2019-05-10T07:20:03.967Z,62.4
2019-05-10T07:25:07.438Z,62.4
2019-05-10T07:30:03.999Z,60.4
2019-05-10T07:35:03.893Z,60.3
2019-05-10T07:40:03.957Z,59.5
2019-05-10T07:45:03.943Z,60.5
2019-05-10T07:50:11.357Z,61.5
2019-05-10T07:55:03.962Z,59.7
2019-05-10T08:00:06.356Z,59.7
2019-05-10T08:05:10.678Z,59.2
2019-05-10T08:10:05.186Z,59.2
2019-05-10T08:15:03.981Z,57.8
2019-05-10T08:20:14.876Z,60.1
2019-05-10T08:25:04.040Z,60.2
2019-05-10T08:30:28.378Z,60.8
2019-05-10T08:35:15.903Z,60.7
2019-05-10T08:40:04.021Z,60.7
2019-05-10T08:45:09.159Z,59.4
2019-05-10T08:50:31.310Z,59.3
2019-05-10T08:55:04.417Z,56.1
2019-05-10T09:00:09.259Z,55.6
2019-05-10T09:05:04.663Z,56.7
2019-05-10T09:10:04.610Z,57.2
2019-05-10T09:15:13.030Z,53.4
2019-05-10T09:20:04.630Z,54.2
2019-05-10T09:25:04.625Z,53.2
2019-05-10T09:30:13.254Z,51.6
2019-05-10T09:35:09.382Z,51.2
2019-05-10T09:40:12.828Z,50.9
2019-05-10T09:45:04.671Z,50
2019-05-10T09:50:04.734Z,49.7
2019-05-10T09:55:14.906Z,49.3
2019-05-10T10:00:07.137Z,48.6
2019-05-10T10:05:04.768Z,49.1
2019-05-10T10:10:07.633Z,48.5
2019-05-10T10:15:04.732Z,49.5
2019-05-10T10:20:04.853Z,49.1
2019-05-10T10:25:07.716Z,52.4
2019-05-10T10:30:13.696Z,57.5
2019-05-10T10:35:07.583Z,57.9
2019-05-10T10:40:08.794Z,58.7
2019-05-10T10:45:07.240Z,60.4
2019-05-10T10:50:13.565Z,61.7
2019-05-10T10:55:10.951Z,63.3
2019-05-10T11:00:07.370Z,65
2019-05-10T11:05:04.860Z,68.1
2019-05-10T11:10:19.059Z,70.3
2019-05-10T11:15:04.852Z,71.1
2019-05-10T11:20:11.288Z,74
2019-05-10T11:25:12.663Z,73.8
2019-05-10T11:30:04.901Z,75.4
2019-05-10T11:35:05.814Z,72.4
2019-05-10T11:40:04.905Z,69.8
2019-05-10T11:45:04.891Z,67.3
2019-05-10T11:50:06.877Z,64.4
2019-05-10T11:55:04.911Z,66.5
2019-05-10T12:00:10.764Z,62
2019-05-10T12:05:20.385Z,58.2
2019-05-10T12:10:21.812Z,58.1
2019-05-10T12:15:05.180Z,58
2019-05-10T12:20:04.908Z,57.8
2019-05-10T12:25:43.515Z,56.8
2019-05-10T12:30:05.118Z,56.9
2019-05-10T12:35:05.080Z,56.2
2019-05-10T12:40:14.819Z,55.5
2019-05-10T12:45:04.998Z,55.3
2019-05-10T12:50:05.185Z,51.6
2019-05-10T12:55:04.888Z,54.1
2019-05-10T13:00:13.540Z,52.8
2019-05-10T13:05:05.090Z,52
2019-05-10T13:10:09.402Z,52.9
2019-05-10T13:15:05.134Z,54.1
2019-05-10T13:20:04.949Z,52.9
2019-05-10T13:25:04.969Z,51.3
2019-05-10T13:30:04.979Z,51.7
2019-05-10T13:35:04.950Z,50.6
2019-05-10T13:40:08.349Z,51.5
2019-05-10T13:45:04.956Z,50.1
2019-05-10T13:50:04.953Z,47.3
2019-05-10T13:55:05.220Z,48.9
2019-05-10T14:00:05.122Z,47.9
2019-05-10T14:05:04.974Z,46
2019-05-10T14:10:04.995Z,45.2
2019-05-10T14:15:13.642Z,45.4
2019-05-10T14:20:05.014Z,43.9
2019-05-10T14:25:04.970Z,45.5
2019-05-10T14:30:13.311Z,46.9
2019-05-10T14:35:05.002Z,49.1
2019-05-10T14:40:04.995Z,56.5
2019-05-10T14:45:05.099Z,62.4
2019-05-10T14:50:04.960Z,65
2019-05-10T14:55:05.192Z,65
2019-05-10T15:00:05.613Z,66.1
2019-05-10T15:05:15.595Z,63.6
2019-05-10T15:10:05.028Z,64.8
2019-05-10T15:15:05.021Z,63.6
2019-05-10T15:20:05.041Z,62.5
2019-05-10T15:25:05.020Z,62.9
2019-05-10T15:30:08.286Z,62.3
2019-05-10T15:35:09.181Z,60.1
2019-05-10T15:40:07.930Z,60.2
2019-05-10T15:45:12.625Z,58.2
2019-05-10T15:50:05.022Z,58.8
2019-05-10T15:55:05.057Z,59
2019-05-10T16:00:05.040Z,57.8
2019-05-10T16:05:34.776Z,57.7
2019-05-10T16:10:05.212Z,57.9
2019-05-10T16:15:05.244Z,58
2019-05-10T16:20:05.054Z,57.2
2019-05-10T16:25:05.072Z,56.4
2019-05-10T16:30:05.044Z,56.1
2019-05-10T16:35:14.525Z,55.1
2019-05-10T16:40:05.096Z,55.5
2019-05-10T16:45:05.219Z,56.1
2019-05-10T16:50:05.064Z,54.7
2019-05-10T16:55:05.660Z,55
2019-05-10T17:00:10.507Z,55.3
2019-05-10T17:05:15.016Z,55.2
2019-05-10T17:10:05.224Z,56.4
2019-05-10T17:15:05.100Z,56.1
2019-05-10T17:20:13.836Z,56.7
2019-05-10T17:25:05.684Z,56
2019-05-10T17:30:05.080Z,57
2019-05-10T17:35:06.985Z,49
2019-05-10T17:40:12.058Z,46.6
2019-05-10T17:45:05.087Z,46.1
2019-05-10T17:50:05.270Z,46.7
2019-05-10T17:55:05.314Z,50.1
2019-05-10T18:00:05.397Z,53.6
2019-05-10T18:05:08.661Z,55.2
2019-05-10T18:10:05.354Z,56.8
2019-05-10T18:15:05.572Z,58.7
2019-05-10T18:20:05.066Z,59.3
2019-05-10T18:25:05.096Z,61.3
2019-05-10T18:30:05.189Z,61
2019-05-10T18:35:16.527Z,62.7
2019-05-10T18:40:05.101Z,64
2019-05-10T18:45:05.102Z,64
2019-05-10T18:50:05.457Z,65
2019-05-10T18:55:05.283Z,66.4
2019-05-10T19:00:05.868Z,67.8
2019-05-10T19:05:05.124Z,67.8
2019-05-10T19:10:05.120Z,68.6
2019-05-10T19:15:14.901Z,70
2019-05-10T19:25:14.186Z,69.8
2019-05-10T19:30:05.206Z,71.8
2019-05-10T19:35:05.173Z,71.8
2019-05-10T19:40:05.218Z,72.2
2019-05-10T19:45:05.222Z,72.9
2019-05-10T19:50:05.190Z,72.1
2019-05-10T19:55:05.158Z,73.7
2019-05-10T20:00:05.222Z,73.3
2019-05-10T20:05:05.527Z,75.8
2019-05-10T20:10:08.405Z,74.3
2019-05-10T20:15:05.726Z,75.1
2019-05-10T20:20:05.186Z,74.8
2019-05-10T20:25:05.675Z,75.6
2019-05-10T20:30:05.176Z,75.8
2019-05-10T20:35:05.170Z,76
2019-05-10T20:40:05.207Z,76.7
2019-05-10T20:45:08.944Z,77.1
2019-05-10T20:50:05.384Z,76.6
2019-05-10T20:55:05.174Z,77.9
2019-05-10T21:00:05.334Z,77.1
2019-05-10T21:05:05.207Z,76.5
2019-05-10T21:10:05.375Z,76.6
2019-05-10T21:15:05.193Z,77.8
2019-05-10T21:20:05.204Z,77.7
2019-05-10T21:25:05.440Z,79.1
2019-05-10T21:30:05.217Z,78.3
2019-05-10T21:35:05.269Z,78.8
2019-05-10T21:40:05.144Z,79.2
2019-05-10T21:45:05.206Z,78
2019-05-10T21:50:05.224Z,78.3
2019-05-10T21:55:05.272Z,77.9
2019-05-10T22:00:05.209Z,77.9
2019-05-10T22:05:05.381Z,78.6
2019-05-10T22:10:05.398Z,77.9
2019-05-10T22:15:05.234Z,78.8
2019-05-10T22:20:05.235Z,79.1
2019-05-10T22:25:05.225Z,79.5
2019-05-10T22:30:05.232Z,79.7
2019-05-10T22:35:05.484Z,79.2
2019-05-10T22:40:05.400Z,78.9
2019-05-10T22:45:05.240Z,78
2019-05-10T22:50:05.239Z,78.6
2019-05-10T22:55:05.252Z,79.5
2019-05-10T23:00:05.263Z,80.6
2019-05-10T23:05:05.251Z,79.7
2019-05-10T23:10:05.250Z,79.6
2019-05-10T23:15:05.247Z,80.6
2019-05-10T23:20:05.246Z,80.3
2019-05-10T23:25:05.232Z,81.9
2019-05-10T23:30:05.240Z,82.5
2019-05-10T23:35:05.509Z,82.7
2019-05-10T23:40:05.262Z,82.3
2019-05-10T23:45:05.341Z,82.9
2019-05-10T23:50:05.220Z,82.4
2019-05-10T23:55:05.298Z,82.4
